Nearby METAR Reports

 

KVCT - Victoria, Texas, USA
Distance from station: E 12mi, 20km
Updated: 04/14/2021 3:22am
Mist, Overcast
Mist, Overcast
 Wind from E
Wind: E 6 mph , 9 km/h
Temperature: 72°F , 22°C
Dew Point: 70°F , 21°C
Humidity: 94%
Barometer: 29.91 inHg , 1012.9 hPa
Summary: Mist
Clouds: Overcast
Visibility: 1 1/4 miles , 2 km
Cloud details: Overcast 200 ft
2021/04/14 08:22 KVCT 140822Z AUTO 10005KT 1 1/4SM BR OVC002 22/21 A2991 RMK AO2 T02170211
KPKV - Port Lavaca, Texas, USA
Distance from station: ESE 31mi, 50km
Updated: 04/14/2021 3:55am
Drizzle, Overcast
Drizzle, Overcast
 Wind from ESE
Wind: ESE 9 mph , 15 km/h
Temperature: 75°F , 24°C
Dew Point: 72°F , 22°C
Humidity: 89%
Barometer: 29.90 inHg , 1012.5 hPa
Summary: Drizzle
Clouds: Overcast
Visibility: 3 miles , 5 km
Cloud details: Overcast 400 ft
2021/04/14 08:55 KPKV 140855Z AUTO 12008KT 3SM DZ OVC004 24/22 A2990 RMK AO2 P0004 60004 T02350219
 
KT20 - Gonzales Muni, Texas, USA
Distance from station: NNW 50mi, 81km
Updated: 04/14/2021 3:55am
Overcast
Overcast
 Wind from SSE
Wind: SSE 3 mph , 6 km/h
Temperature: 75°F , 24°C
Dew Point: 73°F , 23°C
Humidity: 94%
Barometer: 29.91 inHg , 1012.9 hPa
Clouds: Overcast
Visibility: 7 miles , 11 km
Cloud details: Mostly cloudy 1200 ft
Mostly cloudy 2200 ft
Overcast 2900 ft
2021/04/14 08:55 KT20 140855Z AUTO 16003KT 7SM BKN012 BKN022 OVC029 24/23 A2991 RMK AO2 T02360225
KBEA - Beeville Muni, Texas, USA
Distance from station: SW 51mi, 83km
Updated: 04/14/2021 3:55am
Mist, Overcast
Mist, Overcast
 Wind from calm
Wind: Calm
Temperature: 73°F , 23°C
Dew Point: 73°F , 23°C
Humidity: 100%
Barometer: 29.90 inHg , 1012.5 hPa
Summary: Mist
Clouds: Overcast
Visibility: 5 miles , 8 km
Cloud details: Overcast 500 ft
2021/04/14 08:55 KBEA 140855Z AUTO 00000KT 5SM BR OVC005 23/23 A2990 RMK AO2 T02320232
 
KRKP - Rockport, Texas, USA
Distance from station: S 53mi, 86km
Updated: 04/14/2021 3:53am
Mist, Overcast
Mist, Overcast
 Wind from E
Wind: E 6 mph , 9 km/h
Temperature: 73°F , 23°C
Dew Point: 73°F , 23°C
Humidity: 100%
Barometer: 29.88 inHg , 1011.9 hPa
Summary: Mist
Clouds: Overcast
Visibility: 1 1/2 miles , 2.4 km
Cloud details: Overcast 200 ft
2021/04/14 08:53 KRKP 140853Z AUTO 10005KT 1 1/2SM BR OVC002 23/23 A2988 RMK AO2 SLP120 T02330233 55003
KPSX - Palacios, Texas, USA
Distance from station: E 55mi, 88km
Updated: 04/14/2021 3:52am
Mist, Overcast
Mist, Overcast
 Wind from ESE
Wind: ESE 12 mph , 19 km/h
Temperature: 72°F , 22°C
Dew Point: 72°F , 22°C
Humidity: 100%
Barometer: 29.89 inHg , 1012.2 hPa
Summary: Mist
Clouds: Overcast
Visibility: 4 miles , 6 km
Cloud details: Overcast 400 ft
2021/04/14 08:52 KPSX 140852Z AUTO 12010KT 4SM BR OVC004 22/22 A2989 RMK AO2 SLP122 T02220222 53002
 
KTFP - Ingleside/Tp Mcc, Texas, USA
Distance from station: S 65mi, 104km
Updated: 04/14/2021 3:55am
Overcast
Overcast
 Wind from calm
Wind: Calm
Temperature: 75°F , 24°C
Dew Point: 75°F , 24°C
Humidity: 100%
Barometer: 29.87 inHg , 1011.5 hPa
Clouds: Overcast
Visibility: 1 1/4 miles , 2 km
Cloud details: Overcast 100 ft
2021/04/14 08:55 KTFP 140855Z AUTO 00000KT 1 1/4SM OVC001 24/24 A2987 RMK AO2 T02400235
K66R - Columbus, Texas, USA
Distance from station: NE 66mi, 106km
Updated: 04/13/2021 3:15pm
NOT Current
Overcast
Overcast
 Wind from NE
Wind: NE 5 mph , 7 km/h
Temperature: 82°F , 28°C
Heat Index: 86°F , 30°C
Dew Point: 70°F , 21°C
Humidity: 66%
Barometer: 29.89 inHg , 1012.2 hPa
Clouds: Overcast
Visibility: 10 miles , 16 km
Cloud details: Partly cloudy 2900 ft
Partly cloudy 4000 ft
Overcast 6500 ft
2021/04/13 20:15 K66R 132015Z AUTO 05004KT 10SM SCT029 SCT040 OVC065 28/21 A2989 RMK AO2 T02840213
 
KARM - Wharton, Texas, USA
Distance from station: ENE 66mi, 106km
Updated: 04/14/2021 3:55am
Mist, Overcast
Mist, Overcast
 Wind from SE
Wind: SE 6 mph , 9 km/h
Temperature: 70°F , 21°C
Dew Point: 66°F , 19°C
Humidity: 88%
Barometer: 29.93 inHg , 1013.5 hPa
Summary: Mist
Clouds: Overcast
Visibility: 4 miles , 6 km
Cloud details: Overcast 500 ft
2021/04/14 08:55 KARM 140855Z AUTO 13005KT 4SM BR OVC005 21/19 A2993 RMK AO2 T02110192
KRAS - Port Aransas, Texas, USA
Distance from station: S 71mi, 115km
Updated: 04/14/2021 3:55am
Fog, Overcast
Fog, Overcast
 Wind from ESE
Wind: ESE 5 mph , 7 km/h
Temperature: 73°F , 23°C
Dew Point: 73°F , 23°C
Humidity: 100%
Barometer: 29.90 inHg , 1012.5 hPa
Summary: Fog
Clouds: Overcast
Visibility: 1/2 mile , 0.8 km
Cloud details: Overcast 200 ft
2021/04/14 08:55 KRAS 140855Z AUTO 12004KT 1/2SM FG OVC002 23/23 A2990 RMK AO2 T02270226
 
KELA - Eagle Lake, Texas, USA
Distance from station: NE 72mi, 115km
Updated: 04/14/2021 3:55am
Overcast
Overcast
 Wind from ESE
Wind: ESE 3 mph , 6 km/h
Temperature: 72°F , 22°C
Dew Point: 68°F , 20°C
Humidity: 88%
Barometer: 29.92 inHg , 1013.2 hPa
Clouds: Overcast
Visibility: 7 miles , 11 km
Cloud details: Overcast 1000 ft
2021/04/14 08:55 KELA 140855Z AUTO 11003KT 7SM OVC010 22/20 A2992 RMK AO2 T02150198
K3T5 - La Grange, Texas, USA
Distance from station: N 73mi, 118km
Updated: 04/14/2021 3:55am
Mist, Overcast
Mist, Overcast
 Wind from SE
Wind: SE 3 mph , 6 km/h
Temperature: 70°F , 21°C
Dew Point: 70°F , 21°C
Humidity: 100%
Barometer: 29.91 inHg , 1012.9 hPa
Summary: Mist
Clouds: Overcast
Visibility: 3 miles , 5 km
Cloud details: Overcast 300 ft
2021/04/14 08:55 K3T5 140855Z AUTO 14003KT 3SM BR OVC003 21/21 A2991 RMK AO2 LTG DSNT N P0001 60004 T02140214
 
KBYY - Bay City, Texas, USA
Distance from station: E 77mi, 124km
Updated: 04/14/2021 3:55am
Mist, Overcast
Mist, Overcast
 Wind from ESE
Wind: ESE 8 mph , 13 km/h
Temperature: 70°F , 21°C
Dew Point: 70°F , 21°C
Humidity: 100%
Barometer: 29.91 inHg , 1012.9 hPa
Summary: Mist
Clouds: Overcast
Visibility: 2 1/2 miles , 4 km
Cloud details: Overcast 500 ft
2021/04/14 08:55 KBYY 140855Z AUTO 12007KT 2 1/2SM BR OVC005 21/21 A2991 RMK AO2 T02170211
KCRP - Corpus Christi, Texas, USA
Distance from station: SSW 78mi, 126km
Updated: 04/14/2021 3:51am
Overcast
Overcast
 Wind from SSE
Wind: SSE 5 mph , 7 km/h
Temperature: 73°F , 23°C
Dew Point: 73°F , 23°C
Humidity: 100%
Barometer: 29.87 inHg , 1011.5 hPa
Clouds: Overcast
Visibility: 8 miles , 13 km
Cloud details: Few Clouds 400 ft
Overcast 2200 ft
2021/04/14 08:51 KCRP 140851Z 15004KT 8SM FEW004 OVC022 23/23 A2987 RMK AO2 DZE08 SLP115 P0000 60000 T02330228 55005
 
KNGP - C. Christi Nas, Texas, USA
Distance from station: S 81mi, 130km
Updated: 04/14/2021 3:56am
Overcast
Overcast
 Wind from calm
Wind: Calm
Temperature: 75°F , 24°C
Dew Point: 73°F , 23°C
Humidity: 94%
Barometer: 29.88 inHg , 1011.9 hPa
Clouds: Overcast
Visibility: 8 miles , 13 km
Cloud details: Mostly cloudy 400 ft
Overcast 2000 ft
2021/04/14 08:56 KNGP 140856Z AUTO 00000KT 8SM BKN004 OVC020 24/23 A2988 RMK AO2 SLP116 T02390228 55001
KRBO - Robstown/Nueces, Texas, USA
Distance from station: SSW 81mi, 130km
Updated: 04/14/2021 3:55am
Overcast
Overcast
 Wind from calm
Wind: Calm
Temperature: 77°F , 25°C
Dew Point: 75°F , 24°C
Humidity: 94%
Barometer: 29.89 inHg , 1012.2 hPa
Clouds: Overcast
Visibility: 10 miles , 16 km
Cloud details: Overcast 400 ft
2021/04/14 08:55 KRBO 140855Z AUTO 00000KT 10SM OVC004 25/24 A2989 RMK AO2 T02460240
 
KBAZ - New Braunfels, Texas, USA
Distance from station: NW 81mi, 131km
Updated: 04/14/2021 3:51am
Partly cloudy
Partly cloudy
 Wind from SSE
Wind: SSE 3 mph , 6 km/h
Temperature: 72°F , 22°C
Dew Point: 63°F , 17°C
Humidity: 73%
Barometer: 29.90 inHg , 1012.5 hPa
Clouds: Partly cloudy
Visibility: 10 miles , 16 km
Cloud details: Few Clouds 1500 ft
Partly cloudy 3700 ft
2021/04/14 08:51 KBAZ 140851Z AUTO 15003KT 10SM FEW015 SCT037 22/17 A2990 RMK AO2 SLP116 T02170172 58006
KRND - Randolph Afb, Texas, USA
Distance from station: NW 82mi, 132km
Updated: 04/14/2021 3:56am
Partly cloudy
Partly cloudy
 Wind from ESE
Wind: ESE 5 mph , 7 km/h
Temperature: 72°F , 22°C
Dew Point: 63°F , 17°C
Humidity: 73%
Barometer: 29.90 inHg , 1012.5 hPa
Clouds: Partly cloudy
Visibility: 10 miles , 16 km
Cloud details: Partly cloudy 1200 ft
2021/04/14 08:56 KRND 140856Z AUTO 11004KT 10SM SCT012 22/17 A2990 RMK AO2 SLP118 T02190172 57006 $
 
KHYI - San Marcos, Texas, USA
Distance from station: NNW 84mi, 135km
Updated: 04/14/2021 3:56am
Mostly cloudy
Mostly cloudy
 Wind from E
Wind: E 6 mph , 9 km/h
Temperature: 70°F , 21°C
Dew Point: 64°F , 18°C
Humidity: 83%
Barometer: 29.91 inHg , 1012.9 hPa
Clouds: Mostly cloudy
Visibility: 10 miles , 16 km
Cloud details: Mostly cloudy 1500 ft
Mostly cloudy 3200 ft
2021/04/14 08:56 KHYI 140856Z AUTO 10005KT 10SM BKN015 BKN032 21/18 A2991 RMK AO2 SLP119 T02110178 58007
KPEZ - Pleasanton Muni, Texas, USA
Distance from station: W 84mi, 135km
Updated: 04/14/2021 3:55am
Overcast
Overcast
 Wind from E
Wind: E 3 mph , 6 km/h
Temperature: 73°F , 23°C
Dew Point: 70°F , 21°C
Humidity: 89%
Barometer: 29.92 inHg , 1013.2 hPa
Clouds: Overcast
Visibility: 10 miles , 16 km
Cloud details: Partly cloudy 4600 ft
Partly cloudy 5000 ft
Overcast 8000 ft
2021/04/14 08:55 KPEZ 140855Z AUTO 10003KT 10SM SCT046 SCT050 OVC080 23/21 A2992 RMK AO2 T02300205